CTV886 WIII-WIMM
Flight info
| Callsign | CTV886 |
|---|---|
| Flight time | N/A |
| Altitude | 38000 |
| Route | GOMEL T10 AKPER |
| Aircraft | A320/M-SDE3FGHIRWY/LB1 |
Departure
| Time | 2026-04-28 10:20 |
|---|---|
| Airport | Soekarno-Hatta International Airport (WIII) |
Arrival
| Time | N/A |
|---|---|
| Airport | Kualanamu International Airport (WIMM) |
| Time | Latitude | Longitude | Altitude | Speed | Heading |
|---|---|---|---|---|---|
| 2026-04-28 09:48 | -6.13254 | 106.65261 | 38 ft | 0 kts | 336° |
| 2026-04-28 10:09 | -6.13255 | 106.65261 | 38 ft | 2 kts | 336° |
| 2026-04-28 10:10 | -6.13278 | 106.65272 | 37 ft | 4 kts | 332° |
| 2026-04-28 10:10 | -6.13301 | 106.65286 | 34 ft | 4 kts | 313° |
| 2026-04-28 10:10 | -6.13311 | 106.65307 | 36 ft | 3 kts | 251° |
| 2026-04-28 10:10 | -6.13303 | 106.65330 | 36 ft | 3 kts | 249° |
| 2026-04-28 10:11 | -6.13301 | 106.65334 | 37 ft | 0 kts | 249° |
| 2026-04-28 10:13 | -6.13304 | 106.65326 | 38 ft | 4 kts | 249° |
| 2026-04-28 10:13 | -6.13321 | 106.65282 | 37 ft | 9 kts | 249° |
| 2026-04-28 10:14 | -6.13353 | 106.65222 | 37 ft | 10 kts | 213° |
| 2026-04-28 10:14 | -6.13418 | 106.65234 | 38 ft | 10 kts | 157° |
| 2026-04-28 10:14 | -6.13478 | 106.65258 | 38 ft | 9 kts | 159° |
| 2026-04-28 10:14 | -6.13541 | 106.65283 | 38 ft | 12 kts | 159° |
| 2026-04-28 10:15 | -6.13611 | 106.65244 | 38 ft | 16 kts | 249° |
| 2026-04-28 10:15 | -6.13658 | 106.65127 | 37 ft | 20 kts | 248° |
| 2026-04-28 10:15 | -6.13715 | 106.64986 | 36 ft | 23 kts | 247° |
| 2026-04-28 10:15 | -6.13773 | 106.64840 | 36 ft | 22 kts | 249° |
| 2026-04-28 10:16 | -6.13831 | 106.64691 | 39 ft | 24 kts | 248° |
| 2026-04-28 10:16 | -6.13894 | 106.64537 | 38 ft | 23 kts | 248° |
| 2026-04-28 10:16 | -6.13947 | 106.64411 | 36 ft | 16 kts | 246° |
| 2026-04-28 10:16 | -6.13985 | 106.64317 | 38 ft | 14 kts | 248° |
| 2026-04-28 10:17 | -6.14042 | 106.64264 | 39 ft | 11 kts | 177° |
| 2026-04-28 10:17 | -6.14107 | 106.64290 | 39 ft | 9 kts | 157° |
| 2026-04-28 10:17 | -6.14162 | 106.64307 | 40 ft | 10 kts | 165° |
| 2026-04-28 10:17 | -6.14210 | 106.64371 | 41 ft | 12 kts | 116° |
| 2026-04-28 10:18 | -6.14235 | 106.64417 | 41 ft | 4 kts | 87° |
| 2026-04-28 10:18 | -6.14232 | 106.64423 | 41 ft | 0 kts | 66° |
| 2026-04-28 10:19 | -6.14223 | 106.64444 | 41 ft | 20 kts | 66° |
| 2026-04-28 10:19 | -6.14073 | 106.64820 | 39 ft | 92 kts | 68° |
| 2026-04-28 10:19 | -6.13762 | 106.65596 | 39 ft | 146 kts | 68° |
| 2026-04-28 10:20 | -6.13338 | 106.66667 | 232 ft | 172 kts | 68° |
| 2026-04-28 10:20 | -6.12895 | 106.67759 | 914 ft | 170 kts | 67° |
| 2026-04-28 10:20 | -6.12450 | 106.68865 | 1600 ft | 170 kts | 68° |
| 2026-04-28 10:20 | -6.12001 | 106.69996 | 2102 ft | 183 kts | 68° |
| 2026-04-28 10:21 | -6.11504 | 106.71251 | 2371 ft | 205 kts | 69° |
| 2026-04-28 10:21 | -6.11024 | 106.72685 | 2719 ft | 227 kts | 85° |
| 2026-04-28 10:21 | -6.11147 | 106.73751 | 3162 ft | 231 kts | 112° |
| 2026-04-28 10:21 | -6.12515 | 106.75380 | 4235 ft | 235 kts | 141° |
| 2026-04-28 10:22 | -6.13989 | 106.76107 | 5033 ft | 240 kts | 168° |
| 2026-04-28 10:22 | -6.15671 | 106.76153 | 5821 ft | 245 kts | 187° |
| 2026-04-28 10:22 | -6.17307 | 106.75626 | 6591 ft | 250 kts | 207° |
| 2026-04-28 10:22 | -6.18675 | 106.74533 | 7318 ft | 256 kts | 230° |
| 2026-04-28 10:23 | -6.19527 | 106.72954 | 8057 ft | 261 kts | 254° |
| 2026-04-28 10:23 | -6.19918 | 106.71159 | 8818 ft | 264 kts | 258° |
| 2026-04-28 10:23 | -6.20291 | 106.69342 | 9599 ft | 268 kts | 258° |
| 2026-04-28 10:23 | -6.20484 | 106.68089 | 9877 ft | 281 kts | 269° |
| 2026-04-28 10:24 | -6.19750 | 106.65478 | 10205 ft | 310 kts | 306° |
| 2026-04-28 10:24 | -6.18762 | 106.64408 | 10356 ft | 324 kts | 320° |
| 2026-04-28 10:24 | -6.16958 | 106.62910 | 10587 ft | 346 kts | 322° |
| 2026-04-28 10:24 | -6.15047 | 106.61375 | 11131 ft | 355 kts | 322° |
| 2026-04-28 10:25 | -6.13113 | 106.59831 | 11795 ft | 359 kts | 322° |
| 2026-04-28 10:25 | -6.11137 | 106.58249 | 12478 ft | 364 kts | 322° |
| 2026-04-28 10:25 | -6.09147 | 106.56646 | 13137 ft | 368 kts | 322° |
| 2026-04-28 10:25 | -6.07143 | 106.55020 | 13767 ft | 372 kts | 321° |
| 2026-04-28 10:26 | -6.05123 | 106.53375 | 14345 ft | 376 kts | 321° |
| 2026-04-28 10:26 | -6.03075 | 106.51706 | 14940 ft | 379 kts | 321° |
| 2026-04-28 10:26 | -6.01020 | 106.50030 | 15519 ft | 383 kts | 321° |
| 2026-04-28 10:26 | -5.98941 | 106.48336 | 16087 ft | 386 kts | 321° |
| 2026-04-28 10:27 | -5.96841 | 106.46623 | 16671 ft | 390 kts | 321° |
| 2026-04-28 10:27 | -5.94725 | 106.44901 | 17233 ft | 393 kts | 321° |
| 2026-04-28 10:27 | -5.92615 | 106.43187 | 17783 ft | 397 kts | 321° |
| 2026-04-28 10:27 | -5.90454 | 106.41430 | 18304 ft | 400 kts | 321° |
| 2026-04-28 10:28 | -5.88282 | 106.39660 | 18773 ft | 404 kts | 321° |
| 2026-04-28 10:28 | -5.86092 | 106.37873 | 19253 ft | 407 kts | 321° |
| 2026-04-28 10:28 | -5.83888 | 106.36078 | 19732 ft | 409 kts | 321° |
| 2026-04-28 10:29 | -5.79429 | 106.32455 | 20666 ft | 415 kts | 321° |
| 2026-04-28 10:29 | -5.77181 | 106.30630 | 21117 ft | 418 kts | 321° |
| 2026-04-28 10:29 | -5.74914 | 106.28786 | 21596 ft | 420 kts | 321° |
| 2026-04-28 10:29 | -5.72632 | 106.26932 | 22037 ft | 423 kts | 321° |
| 2026-04-28 10:30 | -5.70337 | 106.25067 | 22482 ft | 426 kts | 321° |
| 2026-04-28 10:30 | -5.68027 | 106.23190 | 22917 ft | 429 kts | 321° |
| 2026-04-28 10:30 | -5.65698 | 106.21298 | 23346 ft | 432 kts | 321° |
| 2026-04-28 10:30 | -5.63355 | 106.19396 | 23714 ft | 434 kts | 321° |
| 2026-04-28 10:31 | -5.61007 | 106.17488 | 24093 ft | 436 kts | 321° |
| 2026-04-28 10:31 | -5.58647 | 106.15569 | 24462 ft | 438 kts | 321° |
| 2026-04-28 10:31 | -5.56273 | 106.13639 | 24839 ft | 439 kts | 321° |
| 2026-04-28 10:31 | -5.53889 | 106.11703 | 25208 ft | 441 kts | 321° |
| 2026-04-28 10:32 | -5.51492 | 106.09759 | 25569 ft | 443 kts | 321° |
| 2026-04-28 10:32 | -5.49084 | 106.07808 | 25933 ft | 445 kts | 321° |
| 2026-04-28 10:32 | -5.46673 | 106.05853 | 26291 ft | 447 kts | 321° |
| 2026-04-28 10:32 | -5.44248 | 106.03888 | 26640 ft | 449 kts | 321° |
| 2026-04-28 10:33 | -5.41815 | 106.01913 | 26981 ft | 451 kts | 321° |
| 2026-04-28 10:33 | -5.39370 | 105.99927 | 27330 ft | 453 kts | 321° |
| 2026-04-28 10:33 | -5.36947 | 105.97958 | 27677 ft | 455 kts | 321° |
| 2026-04-28 10:33 | -5.34487 | 105.95959 | 28024 ft | 457 kts | 321° |
| 2026-04-28 10:34 | -5.32003 | 105.93940 | 28362 ft | 459 kts | 322° |
| 2026-04-28 10:34 | -5.29517 | 105.91920 | 28703 ft | 461 kts | 322° |
| 2026-04-28 10:34 | -5.27019 | 105.89895 | 29025 ft | 463 kts | 322° |
| 2026-04-28 10:34 | -5.24513 | 105.87862 | 29342 ft | 464 kts | 322° |
| 2026-04-28 10:35 | -5.21994 | 105.85821 | 29645 ft | 466 kts | 322° |
| 2026-04-28 10:35 | -5.19462 | 105.83773 | 29941 ft | 468 kts | 322° |
| 2026-04-28 10:35 | -5.16898 | 105.81756 | 30191 ft | 470 kts | 324° |
| 2026-04-28 10:35 | -5.14262 | 105.79811 | 30449 ft | 471 kts | 325° |
| 2026-04-28 10:36 | -5.11572 | 105.77918 | 30704 ft | 472 kts | 326° |
| 2026-04-28 10:36 | -5.08863 | 105.76053 | 30956 ft | 474 kts | 326° |
| 2026-04-28 10:36 | -5.06142 | 105.74185 | 31288 ft | 473 kts | 326° |
| 2026-04-28 10:36 | -5.03441 | 105.72315 | 31667 ft | 471 kts | 326° |
| 2026-04-28 10:37 | -5.00756 | 105.70432 | 32038 ft | 470 kts | 326° |
| 2026-04-28 10:37 | -4.98093 | 105.68541 | 32402 ft | 469 kts | 326° |
| 2026-04-28 10:37 | -4.95433 | 105.66638 | 32760 ft | 468 kts | 326° |
| 2026-04-28 10:37 | -4.92780 | 105.64736 | 33124 ft | 467 kts | 326° |
| 2026-04-28 10:38 | -4.90172 | 105.62869 | 33480 ft | 466 kts | 326° |
| 2026-04-28 10:38 | -4.87526 | 105.60983 | 33846 ft | 465 kts | 326° |
| 2026-04-28 10:38 | -4.84886 | 105.59104 | 34156 ft | 464 kts | 326° |
| 2026-04-28 10:38 | -4.82252 | 105.57234 | 34465 ft | 464 kts | 326° |
| 2026-04-28 10:39 | -4.79614 | 105.55365 | 34771 ft | 463 kts | 326° |
| 2026-04-28 10:39 | -4.76986 | 105.53505 | 35071 ft | 463 kts | 326° |
| 2026-04-28 10:39 | -4.74357 | 105.51640 | 35361 ft | 462 kts | 326° |
| 2026-04-28 10:39 | -4.71731 | 105.49774 | 35651 ft | 462 kts | 326° |
| 2026-04-28 10:40 | -4.69110 | 105.47911 | 35790 ft | 462 kts | 326° |
| 2026-04-28 10:40 | -4.63882 | 105.44189 | 35822 ft | 460 kts | 326° |
| 2026-04-28 10:41 | -4.58665 | 105.40481 | 35819 ft | 459 kts | 326° |
| 2026-04-28 10:41 | -4.53449 | 105.36787 | 35820 ft | 459 kts | 326° |
| 2026-04-28 10:42 | -4.48230 | 105.33083 | 35816 ft | 459 kts | 326° |
| 2026-04-28 10:42 | -4.43016 | 105.29381 | 35816 ft | 459 kts | 326° |
| 2026-04-28 10:43 | -4.37800 | 105.25666 | 35816 ft | 460 kts | 326° |
| 2026-04-28 10:43 | -4.32612 | 105.21981 | 35818 ft | 460 kts | 326° |
| 2026-04-28 10:44 | -4.27391 | 105.18291 | 35820 ft | 459 kts | 326° |
| 2026-04-28 10:44 | -4.22170 | 105.14602 | 35819 ft | 459 kts | 326° |
| 2026-04-28 10:45 | -4.16956 | 105.10901 | 35816 ft | 459 kts | 326° |
| 2026-04-28 10:45 | -4.11739 | 105.07194 | 35814 ft | 459 kts | 326° |
| 2026-04-28 10:46 | -4.06877 | 105.03048 | 35811 ft | 460 kts | 318° |
| 2026-04-28 10:46 | -4.02208 | 104.98665 | 35813 ft | 460 kts | 318° |
| 2026-04-28 10:47 | -3.97538 | 104.94294 | 35813 ft | 460 kts | 318° |
| 2026-04-28 10:47 | -3.92859 | 104.89930 | 35810 ft | 459 kts | 318° |
| 2026-04-28 10:48 | -3.88182 | 104.85564 | 35811 ft | 459 kts | 318° |
| 2026-04-28 10:48 | -3.83542 | 104.81225 | 35809 ft | 459 kts | 318° |
| 2026-04-28 10:49 | -3.78876 | 104.76854 | 35807 ft | 459 kts | 318° |
| 2026-04-28 10:49 | -3.74204 | 104.72478 | 35805 ft | 460 kts | 318° |
| 2026-04-28 10:50 | -3.69526 | 104.68114 | 35806 ft | 460 kts | 319° |
| 2026-04-28 10:50 | -3.64843 | 104.63736 | 35783 ft | 462 kts | 318° |
| 2026-04-28 10:51 | -3.60142 | 104.59335 | 35785 ft | 464 kts | 318° |
| 2026-04-28 10:51 | -3.55411 | 104.54918 | 35788 ft | 465 kts | 318° |
| 2026-04-28 10:52 | -3.50678 | 104.50489 | 35794 ft | 466 kts | 318° |
| 2026-04-28 10:52 | -3.45927 | 104.46053 | 35801 ft | 467 kts | 318° |
| 2026-04-28 10:53 | -3.41174 | 104.41620 | 35806 ft | 467 kts | 318° |
| 2026-04-28 10:53 | -3.36424 | 104.37179 | 35813 ft | 467 kts | 318° |
| 2026-04-28 10:54 | -3.31673 | 104.32735 | 35818 ft | 467 kts | 318° |
| 2026-04-28 10:54 | -3.26944 | 104.28327 | 35818 ft | 467 kts | 318° |
| 2026-04-28 10:55 | -3.22184 | 104.23888 | 35815 ft | 467 kts | 318° |
| 2026-04-28 10:55 | -3.17434 | 104.19448 | 35814 ft | 467 kts | 318° |
| 2026-04-28 10:56 | -3.12687 | 104.15015 | 35817 ft | 467 kts | 318° |
| 2026-04-28 10:56 | -3.07937 | 104.10581 | 35815 ft | 467 kts | 318° |
| 2026-04-28 10:57 | -3.03184 | 104.06144 | 35816 ft | 467 kts | 318° |
| 2026-04-28 10:57 | -2.98436 | 104.01713 | 35816 ft | 467 kts | 318° |
| 2026-04-28 10:58 | -2.93683 | 103.97289 | 35818 ft | 467 kts | 319° |
| 2026-04-28 10:58 | -2.88934 | 103.92860 | 35814 ft | 467 kts | 318° |
| 2026-04-28 10:59 | -2.84187 | 103.88422 | 35816 ft | 467 kts | 318° |
| 2026-04-28 10:59 | -2.79434 | 103.83993 | 35812 ft | 467 kts | 319° |
| 2026-04-28 11:00 | -2.74675 | 103.79559 | 35819 ft | 467 kts | 318° |
| 2026-04-28 11:00 | -2.69927 | 103.75127 | 35819 ft | 467 kts | 319° |
| 2026-04-28 11:01 | -2.65177 | 103.70695 | 35822 ft | 467 kts | 319° |
| 2026-04-28 11:01 | -2.60419 | 103.66264 | 35825 ft | 467 kts | 319° |
| 2026-04-28 11:02 | -2.55660 | 103.61835 | 35824 ft | 467 kts | 319° |
| 2026-04-28 11:02 | -2.50913 | 103.57397 | 35825 ft | 467 kts | 318° |
| 2026-04-28 11:03 | -2.46164 | 103.52958 | 35823 ft | 467 kts | 319° |
| 2026-04-28 11:03 | -2.41410 | 103.48534 | 35823 ft | 467 kts | 319° |
| 2026-04-28 11:04 | -2.36647 | 103.44110 | 35830 ft | 467 kts | 319° |
| 2026-04-28 11:04 | -2.31904 | 103.39682 | 35829 ft | 467 kts | 318° |
| 2026-04-28 11:05 | -2.27157 | 103.35244 | 35833 ft | 467 kts | 318° |
| 2026-04-28 11:05 | -2.22439 | 103.30839 | 35831 ft | 467 kts | 318° |
| 2026-04-28 11:06 | -2.17696 | 103.26405 | 35834 ft | 467 kts | 318° |
| 2026-04-28 11:06 | -2.12951 | 103.21980 | 35834 ft | 467 kts | 318° |
| 2026-04-28 11:07 | -2.08209 | 103.17551 | 35838 ft | 466 kts | 318° |
| 2026-04-28 11:07 | -2.03467 | 103.13124 | 35834 ft | 466 kts | 318° |
| 2026-04-28 11:08 | -1.98732 | 103.08697 | 35831 ft | 466 kts | 318° |
| 2026-04-28 11:08 | -1.94001 | 103.04282 | 35834 ft | 465 kts | 319° |
| 2026-04-28 11:09 | -1.89263 | 102.99864 | 35832 ft | 465 kts | 318° |
| 2026-04-28 11:09 | -1.85326 | 102.96196 | 35835 ft | 465 kts | 318° |
| 2026-04-28 11:10 | -1.80601 | 102.91780 | 35835 ft | 465 kts | 318° |
| 2026-04-28 11:10 | -1.75881 | 102.87363 | 35838 ft | 465 kts | 318° |
| 2026-04-28 11:11 | -1.71152 | 102.82942 | 35837 ft | 465 kts | 319° |
| 2026-04-28 11:11 | -1.66414 | 102.78534 | 35848 ft | 465 kts | 319° |
| 2026-04-28 11:12 | -1.61676 | 102.74121 | 35841 ft | 465 kts | 319° |
| 2026-04-28 11:12 | -1.56945 | 102.69706 | 35844 ft | 465 kts | 318° |
| 2026-04-28 11:13 | -1.52225 | 102.65291 | 35842 ft | 465 kts | 318° |
| 2026-04-28 11:13 | -1.47505 | 102.60874 | 35840 ft | 465 kts | 318° |
| 2026-04-28 11:14 | -1.42782 | 102.56467 | 35840 ft | 465 kts | 318° |
| 2026-04-28 11:14 | -1.38047 | 102.52052 | 35843 ft | 465 kts | 318° |
| 2026-04-28 11:15 | -1.33352 | 102.47662 | 35841 ft | 465 kts | 318° |
| 2026-04-28 11:15 | -1.28620 | 102.43238 | 35844 ft | 465 kts | 318° |
| 2026-04-28 11:16 | -1.23890 | 102.38824 | 35843 ft | 465 kts | 318° |
| 2026-04-28 11:16 | -1.19163 | 102.34418 | 35841 ft | 465 kts | 318° |
| 2026-04-28 11:17 | -1.14433 | 102.29997 | 35842 ft | 465 kts | 318° |
| 2026-04-28 11:17 | -1.09697 | 102.25578 | 35842 ft | 466 kts | 318° |
| 2026-04-28 11:18 | -1.04956 | 102.21154 | 35840 ft | 466 kts | 318° |
| 2026-04-28 11:18 | -1.00226 | 102.16729 | 35837 ft | 466 kts | 318° |
| 2026-04-28 11:19 | -0.95491 | 102.12298 | 35835 ft | 466 kts | 318° |
| 2026-04-28 11:19 | -0.90756 | 102.07878 | 35832 ft | 466 kts | 318° |
| 2026-04-28 11:20 | -0.86021 | 102.03456 | 35828 ft | 466 kts | 318° |
| 2026-04-28 11:20 | -0.81289 | 101.99046 | 35821 ft | 466 kts | 318° |
| 2026-04-28 11:21 | -0.76545 | 101.94626 | 35816 ft | 466 kts | 318° |
| 2026-04-28 11:21 | -0.71808 | 101.90210 | 35811 ft | 466 kts | 318° |
| 2026-04-28 11:22 | -0.67065 | 101.85790 | 35807 ft | 466 kts | 318° |
| 2026-04-28 11:22 | -0.62354 | 101.81395 | 35803 ft | 466 kts | 318° |
| 2026-04-28 11:23 | -0.57613 | 101.76960 | 35802 ft | 466 kts | 318° |
| 2026-04-28 11:23 | -0.52879 | 101.72532 | 35796 ft | 466 kts | 318° |
| 2026-04-28 11:24 | -0.48131 | 101.68105 | 35793 ft | 467 kts | 319° |
| 2026-04-28 11:24 | -0.43379 | 101.63682 | 35789 ft | 467 kts | 318° |
| 2026-04-28 11:25 | -0.38630 | 101.59252 | 35783 ft | 467 kts | 318° |
| 2026-04-28 11:25 | -0.33884 | 101.54816 | 35778 ft | 467 kts | 318° |
| 2026-04-28 11:26 | -0.29137 | 101.50384 | 35782 ft | 467 kts | 318° |
| 2026-04-28 11:26 | -0.24385 | 101.45949 | 35784 ft | 467 kts | 318° |
| 2026-04-28 11:27 | -0.19665 | 101.41543 | 35783 ft | 467 kts | 318° |
| 2026-04-28 11:27 | -0.14919 | 101.37117 | 35786 ft | 467 kts | 318° |
| 2026-04-28 11:28 | -0.10169 | 101.32685 | 35784 ft | 467 kts | 318° |
| 2026-04-28 11:28 | -0.05422 | 101.28258 | 35794 ft | 467 kts | 318° |
| 2026-04-28 11:29 | -0.00673 | 101.23826 | 35791 ft | 467 kts | 318° |
| 2026-04-28 11:29 | 0.04067 | 101.19396 | 35792 ft | 467 kts | 318° |
| 2026-04-28 11:30 | 0.08810 | 101.14972 | 35788 ft | 466 kts | 318° |
| 2026-04-28 11:30 | 0.15928 | 101.08340 | 35787 ft | 466 kts | 318° |
| 2026-04-28 11:31 | 0.20643 | 101.03941 | 35788 ft | 467 kts | 318° |
| 2026-04-28 11:31 | 0.25385 | 100.99510 | 35792 ft | 467 kts | 318° |
| 2026-04-28 11:32 | 0.30126 | 100.95079 | 35792 ft | 467 kts | 318° |
| 2026-04-28 11:32 | 0.34877 | 100.90649 | 35798 ft | 467 kts | 318° |
| 2026-04-28 11:33 | 0.39624 | 100.86220 | 35794 ft | 467 kts | 318° |
| 2026-04-28 11:33 | 0.44371 | 100.81793 | 35797 ft | 467 kts | 318° |